Time;durP1;ratioP1;P1;durP2;ratioP2;P2;SDS_P1;SDS_P2;PMS_P1;PMS_P2;Temp;Humidity;BMP_temperature;BMP_pressure;BME280_temperature;BME280_humidity;BME280_pressure;Samples;Min_cycle;Max_cycle;Signal;HPM_P1;HPM_P2
2022/06/28 00:00:38;;;;;;;12.25;7.78;;;14.90;99.90;;;;;;5025387;28;20106;-90
2022/06/28 00:03:03;;;;;;;10.65;7.80;;;14.90;99.90;;;;;;4995492;28;20022;-89
2022/06/28 00:05:29;;;;;;;12.23;7.28;;;14.90;99.90;;;;;;5021219;28;20525;-90
2022/06/28 00:07:55;;;;;;;8.88;6.70;;;14.90;99.90;;;;;;5026640;28;20026;-89
2022/06/28 00:10:21;;;;;;;9.65;7.55;;;14.80;99.90;;;;;;5007779;28;20030;-88
2022/06/28 00:12:47;;;;;;;11.18;8.23;;;14.80;99.90;;;;;;5021888;28;20052;-91
2022/06/28 00:17:59;;;;;;;14.07;9.57;;;14.80;99.90;;;;;;5016575;28;20445;-89
2022/06/28 00:20:24;;;;;;;11.43;8.65;;;14.80;99.90;;;;;;5021609;28;20049;-90
2022/06/28 00:22:50;;;;;;;12.43;9.02;;;14.80;99.90;;;;;;5024564;28;20026;-90
2022/06/28 00:25:16;;;;;;;13.32;9.48;;;14.80;99.90;;;;;;5021841;28;20152;-89
2022/06/28 00:27:42;;;;;;;13.77;9.50;;;14.80;99.90;;;;;;4999851;28;20026;-91
2022/06/28 00:30:08;;;;;;;12.48;10.23;;;14.80;99.90;;;;;;5016391;28;20033;-91
2022/06/28 00:32:34;;;;;;;14.73;9.68;;;14.90;99.90;;;;;;4998839;28;20454;-91
2022/06/28 00:35:04;;;;;;;10.48;8.25;;;14.90;99.90;;;;;;5015657;28;20018;-91
2022/06/28 00:37:30;;;;;;;12.93;7.55;;;14.80;99.90;;;;;;4998555;28;20072;-91
2022/06/28 00:39:56;;;;;;;9.02;7.32;;;14.80;99.90;;;;;;5019494;28;20033;-90
2022/06/28 00:42:22;;;;;;;9.60;6.65;;;14.80;99.90;;;;;;5003018;28;20026;-91
2022/06/28 00:44:48;;;;;;;8.43;5.82;;;14.80;99.90;;;;;;5018478;28;20017;-91
2022/06/28 00:47:15;;;;;;;9.00;6.70;;;14.70;99.90;;;;;;5011463;28;20034;-90
2022/06/28 00:49:42;;;;;;;10.15;6.80;;;14.70;99.90;;;;;;5011922;28;20033;-89
2022/06/28 00:52:09;;;;;;;10.32;7.68;;;14.70;99.90;;;;;;5017883;28;20033;-89
2022/06/28 00:54:35;;;;;;;10.85;7.68;;;14.60;99.90;;;;;;5019303;28;20014;-90
2022/06/28 00:57:01;;;;;;;12.80;9.13;;;14.60;99.90;;;;;;5020221;28;20022;-89
2022/06/28 00:59:28;;;;;;;12.25;9.55;;;14.60;99.90;;;;;;5005740;28;20038;-88
2022/06/28 01:01:55;;;;;;;13.88;10.40;;;14.60;99.90;;;;;;5019744;28;20022;-89
2022/06/28 01:04:21;;;;;;;12.52;9.68;;;14.50;99.90;;;;;;5018045;28;20100;-90
2022/06/28 01:06:47;;;;;;;13.82;10.95;;;14.50;99.90;;;;;;5017679;28;20053;-90
2022/06/28 01:09:12;;;;;;;13.13;10.73;;;14.50;99.90;;;;;;5017487;28;20029;-89
2022/06/28 01:11:38;;;;;;;14.15;10.57;;;14.50;99.90;;;;;;5017347;28;20029;-89
2022/06/28 01:14:08;;;;;;;17.83;11.63;;;14.50;99.90;;;;;;5018897;28;20470;-89
2022/06/28 01:16:35;;;;;;;14.30;11.63;;;14.40;99.90;;;;;;5000770;28;20124;-90
2022/06/28 01:19:01;;;;;;;14.77;10.95;;;14.40;99.90;;;;;;5000981;28;20573;-90
2022/06/28 01:21:29;;;;;;;14.63;10.57;;;14.40;99.90;;;;;;5018525;28;20060;-90
2022/06/28 01:23:55;;;;;;;13.60;10.52;;;14.40;99.90;;;;;;5014096;28;20026;-91
2022/06/28 01:26:23;;;;;;;12.98;10.45;;;14.40;99.90;;;;;;5014556;28;20030;-91
2022/06/28 01:28:50;;;;;;;13.38;9.48;;;14.40;99.90;;;;;;5019814;28;20102;-90
2022/06/28 01:31:21;;;;;;;12.77;9.55;;;14.30;99.90;;;;;;5002326;28;20033;-89
2022/06/28 01:33:47;;;;;;;14.07;10.55;;;14.30;99.90;;;;;;5017862;28;20025;-90
2022/06/28 01:36:14;;;;;;;16.58;10.77;;;14.30;99.90;;;;;;5001628;28;20018;-90
2022/06/28 01:38:40;;;;;;;19.33;13.10;;;14.30;99.90;;;;;;5018419;28;20026;-90
2022/06/28 01:41:07;;;;;;;17.33;12.85;;;14.30;99.90;;;;;;5021636;28;20026;-89
2022/06/28 01:43:35;;;;;;;14.60;12.68;;;14.30;99.90;;;;;;5023470;28;20054;-87
2022/06/28 01:46:03;;;;;;;18.85;13.38;;;14.30;99.90;;;;;;5025951;28;20508;-90
2022/06/28 01:48:32;;;;;;;18.98;14.30;;;14.30;99.90;;;;;;5025690;28;20018;-89
2022/06/28 01:50:57;;;;;;;19.27;13.68;;;14.20;99.90;;;;;;5021950;28;20037;-88
2022/06/28 01:53:23;;;;;;;16.40;14.38;;;14.20;99.90;;;;;;5025680;28;20025;-87
2022/06/28 01:55:49;;;;;;;15.32;13.13;;;14.20;99.90;;;;;;5026910;28;20033;-89
2022/06/28 01:58:15;;;;;;;19.33;14.15;;;14.20;99.90;;;;;;5026669;28;20022;-88
2022/06/28 02:00:41;;;;;;;15.75;13.38;;;14.20;99.90;;;;;;5021105;28;20049;-90
2022/06/28 02:03:06;;;;;;;16.10;13.05;;;14.20;99.90;;;;;;5017030;28;20470;-87
2022/06/28 02:05:33;;;;;;;19.73;13.23;;;14.20;99.90;;;;;;5016699;28;20068;-91
2022/06/28 02:07:59;;;;;;;17.73;14.93;;;14.20;99.90;;;;;;5016381;28;20095;-88
2022/06/28 02:10:25;;;;;;;20.67;15.32;;;14.10;99.90;;;;;;5000310;28;20026;-89
2022/06/28 02:12:51;;;;;;;20.58;15.77;;;14.10;99.90;;;;;;5016666;28;20028;-89
2022/06/28 02:15:16;;;;;;;17.50;15.18;;;14.10;99.90;;;;;;5016852;28;20018;-89
2022/06/28 02:17:43;;;;;;;20.45;15.88;;;14.10;99.90;;;;;;5016672;28;20045;-89
2022/06/28 02:20:10;;;;;;;21.30;15.93;;;14.10;99.90;;;;;;5018207;28;20050;-90
2022/06/28 02:22:36;;;;;;;18.73;15.73;;;14.10;99.90;;;;;;5018136;28;20018;-89
2022/06/28 02:25:01;;;;;;;20.13;15.73;;;14.10;99.90;;;;;;5018569;28;20510;-90
2022/06/28 02:27:27;;;;;;;17.48;14.70;;;14.00;99.90;;;;;;5017103;28;20026;-89
2022/06/28 02:29:53;;;;;;;19.58;15.70;;;14.00;99.90;;;;;;5019418;28;20022;-91
2022/06/28 02:32:19;;;;;;;18.90;15.90;;;14.00;99.90;;;;;;5003685;28;20030;-89
2022/06/28 02:40:22;;;;;;;21.27;15.82;;;13.90;99.90;;;;;;5017653;28;20095;-88
2022/06/28 02:42:52;;;;;;;20.17;16.08;;;13.90;99.90;;;;;;5016134;28;20038;-91
2022/06/28 02:45:19;;;;;;;20.52;16.45;;;13.90;99.90;;;;;;5000231;28;20477;-91
2022/06/28 02:47:45;;;;;;;19.65;16.00;;;13.90;99.90;;;;;;4999707;28;20033;-90
2022/06/28 02:50:11;;;;;;;21.50;16.75;;;13.90;99.90;;;;;;5016125;28;20026;-90
2022/06/28 02:52:37;;;;;;;19.27;16.08;;;13.90;99.90;;;;;;5016955;28;20091;-91
2022/06/28 02:55:03;;;;;;;20.40;16.38;;;13.80;99.90;;;;;;5015994;28;20026;-92
2022/06/28 02:57:29;;;;;;;18.13;15.50;;;13.80;99.90;;;;;;5015944;28;20034;-91
2022/06/28 02:59:54;;;;;;;18.83;16.38;;;13.80;99.90;;;;;;5015947;28;20052;-90
2022/06/28 03:02:20;;;;;;;18.08;15.80;;;13.80;99.90;;;;;;4998787;28;20022;-89
2022/06/28 03:04:46;;;;;;;20.55;16.63;;;13.80;99.90;;;;;;5016341;28;20026;-89
2022/06/28 03:07:11;;;;;;;19.58;16.08;;;13.80;99.90;;;;;;4998571;28;20534;-89
2022/06/28 03:09:37;;;;;;;21.70;16.35;;;13.80;99.90;;;;;;5012727;28;20018;-89
2022/06/28 03:12:05;;;;;;;18.70;15.45;;;13.70;99.90;;;;;;5009089;28;20193;-89
2022/06/28 03:14:31;;;;;;;19.83;14.10;;;13.70;99.90;;;;;;4998498;28;20036;-89
2022/06/28 03:16:57;;;;;;;18.45;15.18;;;13.70;99.90;;;;;;5019075;28;20104;-89
2022/06/28 03:19:23;;;;;;;17.70;13.70;;;13.70;99.90;;;;;;5015621;28;20042;-88
2022/06/28 03:21:49;;;;;;;17.48;13.70;;;13.70;99.90;;;;;;5015670;28;20029;-88
2022/06/28 03:24:14;;;;;;;17.63;13.70;;;13.70;99.90;;;;;;4998806;28;20105;-88
2022/06/28 03:26:40;;;;;;;18.38;13.82;;;13.70;99.90;;;;;;5014335;28;20053;-88
2022/06/28 03:29:06;;;;;;;20.95;14.38;;;13.70;99.90;;;;;;5016086;28;20018;-88
2022/06/28 03:31:31;;;;;;;18.15;14.07;;;13.70;99.90;;;;;;5015557;28;20546;-87
2022/06/28 03:33:57;;;;;;;17.83;14.10;;;13.60;99.90;;;;;;5015456;28;20410;-88
2022/06/28 03:36:23;;;;;;;17.02;13.90;;;13.60;99.90;;;;;;5014354;28;20022;-89
2022/06/28 03:38:49;;;;;;;15.82;13.23;;;13.60;99.90;;;;;;5014025;28;20465;-88
2022/06/28 03:41:22;;;;;;;19.00;13.82;;;13.60;99.90;;;;;;4997434;28;20037;-88
2022/06/28 03:43:49;;;;;;;16.58;12.70;;;13.60;99.90;;;;;;5014071;28;20022;-88
2022/06/28 03:46:14;;;;;;;15.45;12.43;;;13.60;99.90;;;;;;5013601;28;20022;-88
2022/06/28 03:48:40;;;;;;;14.90;12.48;;;13.60;99.90;;;;;;5014277;28;20017;-87
2022/06/28 03:51:06;;;;;;;16.60;12.93;;;13.60;99.90;;;;;;4981334;28;20480;-89
2022/06/28 03:53:31;;;;;;;18.25;12.70;;;13.60;99.90;;;;;;5015520;28;20018;-87
2022/06/28 03:55:57;;;;;;;17.33;12.18;;;13.60;99.90;;;;;;5014772;28;20109;-88
2022/06/28 03:58:23;;;;;;;15.15;12.02;;;13.60;99.90;;;;;;4998553;28;20021;-88
2022/06/28 04:00:48;;;;;;;14.82;12.00;;;13.60;99.90;;;;;;5013958;28;20116;-89
2022/06/28 04:03:14;;;;;;;16.38;12.23;;;13.60;99.90;;;;;;5014400;28;20030;-91
2022/06/28 04:05:39;;;;;;;16.65;11.73;;;13.60;99.90;;;;;;5013836;28;20032;-89
2022/06/28 04:08:05;;;;;;;16.85;11.77;;;13.60;99.90;;;;;;4997707;28;20033;-90
2022/06/28 04:10:31;;;;;;;16.02;11.18;;;13.60;99.90;;;;;;5013847;28;20049;-90
2022/06/28 04:12:56;;;;;;;15.30;10.90;;;13.60;99.90;;;;;;5013249;28;20030;-89
2022/06/28 04:15:22;;;;;;;15.25;10.73;;;13.60;99.90;;;;;;5014844;28;20034;-89
2022/06/28 04:17:48;;;;;;;14.43;11.05;;;13.60;99.90;;;;;;5014246;28;20133;-90
2022/06/28 04:20:13;;;;;;;14.10;10.60;;;13.60;99.90;;;;;;4997680;28;20104;-89
2022/06/28 04:22:39;;;;;;;13.20;10.43;;;13.60;99.90;;;;;;4977799;28;20455;-87
2022/06/28 04:25:05;;;;;;;15.02;10.50;;;13.60;99.90;;;;;;4993869;28;20033;-88
2022/06/28 04:27:31;;;;;;;14.02;10.82;;;13.60;99.90;;;;;;4962952;28;20459;-88
2022/06/28 04:29:59;;;;;;;17.23;10.93;;;13.70;99.90;;;;;;4994226;28;20026;-87
2022/06/28 04:32:25;;;;;;;13.07;9.85;;;13.70;99.90;;;;;;4984720;28;20029;-86
2022/06/28 04:34:51;;;;;;;13.70;9.52;;;13.70;99.90;;;;;;5006251;28;20490;-89
2022/06/28 04:37:16;;;;;;;14.45;8.57;;;13.70;99.90;;;;;;5014271;28;20038;-88
2022/06/28 04:39:42;;;;;;;14.48;9.70;;;13.70;99.90;;;;;;5012746;28;20050;-88
2022/06/28 04:42:08;;;;;;;12.02;9.70;;;13.70;99.90;;;;;;4996959;28;20108;-87
2022/06/28 04:44:33;;;;;;;11.30;8.70;;;13.70;99.90;;;;;;5013675;28;20013;-86
2022/06/28 04:47:00;;;;;;;14.20;10.10;;;13.80;99.90;;;;;;4996854;28;20394;-87
2022/06/28 04:49:26;;;;;;;11.75;9.27;;;13.80;99.90;;;;;;5012838;28;20018;-87
2022/06/28 04:51:52;;;;;;;11.35;8.98;;;13.80;99.90;;;;;;4996380;28;20018;-86
2022/06/28 04:54:18;;;;;;;15.50;8.73;;;13.80;99.90;;;;;;4996950;28;20026;-88
2022/06/28 04:56:43;;;;;;;10.80;8.45;;;13.80;99.90;;;;;;5014261;28;20109;-83
2022/06/28 04:59:09;;;;;;;11.05;8.57;;;13.80;99.90;;;;;;4995489;28;20037;-80
2022/06/28 05:01:34;;;;;;;11.13;7.82;;;13.80;99.90;;;;;;4995729;28;20022;-81
2022/06/28 05:04:00;;;;;;;11.77;8.40;;;13.90;99.90;;;;;;5011901;28;20025;-81
2022/06/28 05:06:26;;;;;;;11.95;7.80;;;13.90;99.90;;;;;;5009870;28;20492;-82
2022/06/28 05:08:52;;;;;;;10.77;8.00;;;13.90;99.90;;;;;;4999596;28;20466;-82
2022/06/28 05:11:17;;;;;;;12.82;8.43;;;14.00;99.90;;;;;;5001126;28;20029;-82
2022/06/28 05:13:43;;;;;;;12.45;7.30;;;14.00;99.90;;;;;;4985924;28;20033;-82
2022/06/28 05:16:11;;;;;;;12.18;7.90;;;14.00;99.90;;;;;;4999118;28;20498;-82
2022/06/28 05:18:36;;;;;;;11.43;7.05;;;14.00;99.90;;;;;;5001286;28;20459;-81
2022/06/28 05:21:02;;;;;;;11.27;7.13;;;14.10;99.90;;;;;;5002289;28;20050;-82
2022/06/28 05:23:28;;;;;;;10.25;6.65;;;14.10;99.90;;;;;;5009801;28;20018;-82
2022/06/28 05:25:54;;;;;;;11.57;6.50;;;14.10;99.90;;;;;;5013189;28;20133;-82
2022/06/28 05:28:20;;;;;;;9.70;5.70;;;14.20;99.90;;;;;;5014071;28;20030;-82
2022/06/28 05:30:46;;;;;;;8.68;5.78;;;14.20;99.90;;;;;;4997097;28;20037;-82
2022/06/28 05:33:12;;;;;;;12.70;5.88;;;14.20;99.90;;;;;;5011981;28;20013;-82
2022/06/28 05:35:37;;;;;;;12.88;5.75;;;14.20;99.90;;;;;;5013498;28;20359;-84
2022/06/28 05:38:03;;;;;;;7.20;5.03;;;14.20;99.90;;;;;;5013128;28;20064;-88
2022/06/28 05:40:29;;;;;;;8.43;4.95;;;14.20;99.90;;;;;;5013230;28;20125;-87
2022/06/28 05:42:54;;;;;;;9.45;5.60;;;14.30;99.90;;;;;;4998969;28;20018;-86
2022/06/28 05:45:20;;;;;;;10.68;5.18;;;14.30;99.90;;;;;;5014634;28;20034;-87
2022/06/28 05:47:46;;;;;;;9.98;5.70;;;14.30;99.90;;;;;;4999142;28;20014;-87
2022/06/28 05:50:19;;;;;;;11.77;5.43;;;14.30;99.90;;;;;;4997633;28;20026;-87
2022/06/28 05:52:47;;;;;;;9.27;5.43;;;14.30;99.90;;;;;;5015919;28;20018;-88
2022/06/28 05:55:13;;;;;;;9.88;5.22;;;14.30;99.90;;;;;;5016433;28;20018;-87
2022/06/28 05:57:38;;;;;;;8.88;4.80;;;14.40;99.90;;;;;;5015504;28;20437;-87
2022/06/28 06:00:05;;;;;;;12.18;5.47;;;14.40;99.90;;;;;;5014077;28;20073;-87
2022/06/28 06:02:31;;;;;;;9.68;5.65;;;14.40;99.90;;;;;;5012790;28;20017;-88
2022/06/28 06:04:59;;;;;;;12.10;5.95;;;14.40;99.90;;;;;;4998997;28;20025;-87
2022/06/28 06:07:25;;;;;;;12.77;5.28;;;14.50;99.90;;;;;;5015682;28;20018;-87
2022/06/28 06:09:50;;;;;;;9.43;5.03;;;14.50;99.90;;;;;;5000712;28;20489;-86
2022/06/28 06:12:16;;;;;;;12.88;5.35;;;14.60;99.90;;;;;;5018079;28;20041;-87
2022/06/28 06:14:42;;;;;;;12.60;5.05;;;14.60;99.90;;;;;;5015522;28;20037;-87
2022/06/28 06:17:08;;;;;;;9.52;4.63;;;14.70;99.90;;;;;;4998490;28;20029;-87
2022/06/28 06:19:34;;;;;;;12.05;4.55;;;14.70;99.90;;;;;;5000442;28;20050;-87
2022/06/28 06:21:59;;;;;;;15.88;5.20;;;14.70;99.90;;;;;;5001716;28;20378;-88
2022/06/28 06:24:25;;;;;;;7.35;4.03;;;14.80;99.90;;;;;;5000640;28;20022;-88
2022/06/28 06:26:50;;;;;;;14.60;5.40;;;14.80;99.90;;;;;;5001328;28;20359;-87
2022/06/28 06:29:16;;;;;;;11.98;4.90;;;14.80;99.90;;;;;;5017094;28;20485;-87
2022/06/28 06:31:42;;;;;;;13.68;4.63;;;14.90;99.90;;;;;;5017104;28;20421;-86
2022/06/28 06:34:08;;;;;;;12.45;4.55;;;14.90;99.90;;;;;;5015361;28;20031;-86
2022/06/28 06:36:34;;;;;;;12.07;6.00;;;15.00;99.90;;;;;;5014986;28;20473;-88
2022/06/28 06:38:59;;;;;;;14.85;5.65;;;15.00;99.90;;;;;;5000246;28;20533;-88
2022/06/28 06:41:25;;;;;;;13.20;4.50;;;15.10;99.90;;;;;;5017399;28;20058;-88
2022/06/28 06:43:53;;;;;;;11.18;4.43;;;15.20;99.90;;;;;;5017813;28;20053;-89
2022/06/28 06:46:19;;;;;;;11.27;4.35;;;15.20;99.90;;;;;;5000059;28;20466;-86
2022/06/28 06:48:44;;;;;;;15.52;4.18;;;15.30;99.90;;;;;;5015349;28;20029;-87
2022/06/28 06:51:10;;;;;;;8.05;3.53;;;15.30;99.90;;;;;;5016789;28;20113;-89
2022/06/28 06:53:36;;;;;;;11.07;3.80;;;15.40;99.90;;;;;;5015491;28;20037;-88
2022/06/28 06:56:01;;;;;;;13.45;4.18;;;15.40;99.90;;;;;;5015738;28;20026;-88
2022/06/28 06:58:27;;;;;;;11.95;4.00;;;15.50;99.90;;;;;;5015384;28;20083;-88
2022/06/28 07:00:54;;;;;;;16.67;3.78;;;15.50;99.90;;;;;;5015432;28;20064;-89
2022/06/28 07:03:19;;;;;;;9.38;3.33;;;15.60;99.90;;;;;;4998638;28;20026;-88
2022/06/28 07:05:45;;;;;;;14.40;3.70;;;15.60;99.90;;;;;;5015218;28;20041;-88
2022/06/28 07:08:11;;;;;;;15.73;3.75;;;15.60;99.90;;;;;;5015558;28;20034;-89
2022/06/28 07:10:36;;;;;;;13.93;4.20;;;15.70;99.90;;;;;;5014507;28;20026;-89
2022/06/28 07:13:02;;;;;;;11.13;3.95;;;15.70;99.90;;;;;;5014207;28;20032;-88
2022/06/28 07:15:28;;;;;;;14.88;3.53;;;15.80;99.90;;;;;;5015389;28;20569;-89
2022/06/28 07:17:53;;;;;;;13.20;3.25;;;15.90;99.90;;;;;;5014130;28;20084;-89
2022/06/28 07:20:19;;;;;;;15.88;3.80;;;15.90;99.90;;;;;;5013815;28;20053;-89
2022/06/28 07:22:44;;;;;;;16.55;4.10;;;16.00;99.90;;;;;;5014240;28;20097;-89
2022/06/28 07:25:10;;;;;;;11.88;3.53;;;16.00;99.90;;;;;;4997714;28;20022;-89
2022/06/28 07:27:36;;;;;;;13.68;4.05;;;16.10;99.90;;;;;;5014043;28;20029;-89
2022/06/28 07:30:02;;;;;;;18.15;4.75;;;16.20;99.90;;;;;;4998158;28;20049;-88
2022/06/28 07:32:28;;;;;;;13.35;4.00;;;16.20;99.90;;;;;;5014611;28;20030;-88
2022/06/28 07:34:53;;;;;;;13.68;3.75;;;16.20;99.90;;;;;;4998297;28;20033;-88
2022/06/28 07:37:19;;;;;;;14.77;4.13;;;16.30;99.90;;;;;;5014719;28;20029;-89
2022/06/28 07:39:45;;;;;;;15.70;3.75;;;16.30;99.90;;;;;;5015622;28;20037;-89
2022/06/28 07:42:13;;;;;;;15.10;4.95;;;16.30;99.90;;;;;;4997741;28;20093;-88
2022/06/28 07:44:42;;;;;;;12.68;3.72;;;16.40;99.90;;;;;;5013953;28;20018;-88
2022/06/28 07:47:08;;;;;;;12.48;4.20;;;16.50;99.90;;;;;;5018701;28;20026;-88
2022/06/28 07:52:36;;;;;;;16.73;3.70;;;16.60;99.90;;;;;;5020091;28;20076;-88
2022/06/28 07:55:04;;;;;;;9.57;3.90;;;16.60;99.90;;;;;;5001955;28;20037;-89
2022/06/28 07:57:31;;;;;;;12.00;4.22;;;16.70;99.90;;;;;;5017465;28;20049;-88
2022/06/28 07:59:56;;;;;;;12.90;3.20;;;16.80;99.90;;;;;;5015434;28;20101;-89
2022/06/28 08:02:23;;;;;;;11.95;3.53;;;16.80;99.90;;;;;;5016425;28;20046;-88
2022/06/28 08:04:49;;;;;;;8.93;2.47;;;16.80;99.90;;;;;;5014019;28;20025;-89
2022/06/28 08:07:15;;;;;;;7.85;2.03;;;16.90;99.90;;;;;;5014664;28;20521;-88
2022/06/28 08:09:41;;;;;;;9.52;2.75;;;17.00;99.90;;;;;;4997031;28;20056;-89
2022/06/28 08:12:07;;;;;;;11.35;1.85;;;17.00;99.90;;;;;;4996958;28;20022;-89
2022/06/28 08:14:33;;;;;;;12.25;2.00;;;17.00;99.90;;;;;;5014475;28;20022;-89
2022/06/28 08:16:59;;;;;;;8.20;1.90;;;17.10;99.90;;;;;;5014578;28;20026;-89
2022/06/28 08:19:25;;;;;;;13.50;2.50;;;17.10;99.90;;;;;;5013171;28;20050;-90
2022/06/28 08:21:51;;;;;;;7.07;1.50;;;17.20;99.90;;;;;;5013113;28;20018;-89
2022/06/28 08:24:17;;;;;;;4.63;1.45;;;17.20;99.80;;;;;;4996937;28;20109;-88
2022/06/28 08:26:43;;;;;;;6.15;1.63;;;17.30;99.50;;;;;;5013035;28;20054;-90
2022/06/28 08:29:14;;;;;;;7.07;1.40;;;17.30;99.20;;;;;;4997386;28;20026;-88
2022/06/28 08:31:40;;;;;;;8.57;1.75;;;17.40;98.80;;;;;;5013459;28;20022;-88
2022/06/28 08:34:06;;;;;;;7.20;1.40;;;17.40;98.60;;;;;;4997508;28;20030;-89
2022/06/28 08:36:32;;;;;;;8.60;1.13;;;17.40;98.40;;;;;;5013388;28;20015;-89
2022/06/28 08:38:58;;;;;;;4.93;1.00;;;17.50;98.20;;;;;;4997014;28;20041;-89
2022/06/28 08:41:30;;;;;;;4.75;1.13;;;17.60;97.90;;;;;;5014490;28;20026;-88
2022/06/28 08:43:56;;;;;;;6.55;1.30;;;17.60;97.50;;;;;;5013806;28;20022;-89
2022/06/28 08:46:24;;;;;;;8.55;1.45;;;17.60;97.20;;;;;;5020218;28;20033;-89
2022/06/28 08:49:02;;;;;;;6.35;1.10;;;17.70;96.80;;;;;;5028504;28;20026;-86
2022/06/28 08:51:31;;;;;;;5.90;1.33;;;17.70;96.70;;;;;;5020874;28;20079;-88
2022/06/28 08:54:00;;;;;;;4.50;0.98;;;17.80;96.10;;;;;;5015335;28;20021;-89
2022/06/28 08:56:26;;;;;;;6.88;1.10;;;17.80;95.70;;;;;;5013873;28;20029;-89
2022/06/28 08:58:52;;;;;;;8.45;1.30;;;17.80;95.40;;;;;;5014559;28;20470;-88
2022/06/28 09:01:18;;;;;;;10.23;1.17;;;17.90;95.20;;;;;;5000618;28;20103;-88
2022/06/28 09:03:49;;;;;;;6.30;1.30;;;18.00;94.90;;;;;;5020893;28;20094;-88
2022/06/28 09:06:14;;;;;;;5.70;0.85;;;18.00;94.30;;;;;;5017669;28;20022;-88
2022/06/28 09:08:40;;;;;;;5.38;1.00;;;18.00;94.10;;;;;;5000588;28;20053;-86
2022/06/28 09:11:06;;;;;;;7.50;1.38;;;18.10;94.10;;;;;;5017199;28;20125;-89
2022/06/28 09:13:35;;;;;;;7.47;1.10;;;18.20;93.90;;;;;;5016881;28;20022;-89
2022/06/28 09:16:03;;;;;;;3.92;1.00;;;18.20;93.50;;;;;;5017892;28;20021;-89
2022/06/28 09:18:35;;;;;;;3.75;0.73;;;18.30;93.30;;;;;;5016404;28;20038;-89
2022/06/28 09:21:12;;;;;;;4.47;0.95;;;18.40;92.90;;;;;;5017108;28;20042;-89
2022/06/28 09:23:40;;;;;;;4.35;0.77;;;18.40;92.40;;;;;;5016630;28;20018;-88
2022/06/28 09:26:07;;;;;;;3.30;0.70;;;18.50;92.10;;;;;;5016671;28;20022;-89
2022/06/28 09:28:38;;;;;;;5.32;1.42;;;18.50;91.90;;;;;;5017240;28;20105;-87
2022/06/28 09:31:18;;;;;;;3.85;0.77;;;18.60;91.70;;;;;;5017955;28;20458;-88
2022/06/28 09:33:47;;;;;;;2.72;0.63;;;18.60;91.40;;;;;;5016656;28;20037;-89
2022/06/28 09:36:15;;;;;;;2.80;0.90;;;18.70;91.10;;;;;;5017791;28;20056;-88
2022/06/28 09:38:41;;;;;;;4.00;0.73;;;18.70;90.70;;;;;;5001247;28;20121;-87
2022/06/28 09:41:21;;;;;;;6.30;0.88;;;18.80;90.30;;;;;;5000957;28;20061;-88
2022/06/28 09:43:57;;;;;;;4.22;1.00;;;18.90;90.00;;;;;;5027478;28;20026;-88
2022/06/28 09:46:26;;;;;;;5.30;0.80;;;19.00;89.10;;;;;;5032052;28;20018;-87
2022/06/28 09:49:10;;;;;;;3.63;0.80;;;19.00;88.70;;;;;;5020251;28;20025;-89
2022/06/28 09:51:38;;;;;;;5.60;0.70;;;19.10;87.70;;;;;;5003688;28;20018;-90
2022/06/28 09:54:09;;;;;;;2.63;0.55;;;19.10;87.00;;;;;;5000461;28;20030;-89
2022/06/28 09:56:43;;;;;;;1.55;0.40;;;19.20;86.10;;;;;;5016616;28;20048;-90
2022/06/28 09:59:10;;;;;;;2.03;0.40;;;19.20;84.30;;;;;;5017616;28;20021;-89
2022/06/28 10:01:36;;;;;;;6.10;0.60;;;19.30;84.00;;;;;;5016251;28;20025;-90
2022/06/28 10:04:03;;;;;;;3.15;0.50;;;19.30;83.50;;;;;;5015993;28;20026;-89
2022/06/28 10:06:29;;;;;;;2.78;0.50;;;19.40;83.10;;;;;;5016360;28;20470;-88
2022/06/28 10:08:55;;;;;;;5.55;0.55;;;19.40;82.30;;;;;;4999532;28;20021;-89
2022/06/28 10:11:21;;;;;;;6.63;0.93;;;19.50;82.00;;;;;;5014050;28;20030;-87
2022/06/28 10:16:57;;;;;;;3.63;0.50;;;19.60;80.90;;;;;;5016013;28;20037;-89
2022/06/28 10:19:26;;;;;;;2.38;0.40;;;19.70;79.90;;;;;;5016183;28;20140;-88
2022/06/28 10:21:51;;;;;;;5.32;0.60;;;19.80;79.00;;;;;;5017653;28;20489;-88
2022/06/28 10:24:18;;;;;;;2.78;0.40;;;19.80;78.50;;;;;;5017096;28;20029;-89
2022/06/28 10:27:05;;;;;;;2.15;0.40;;;19.80;78.30;;;;;;4999589;28;20061;-90
2022/06/28 10:29:31;;;;;;;2.97;0.50;;;19.90;77.10;;;;;;5015989;28;20079;-89
2022/06/28 10:31:56;;;;;;;4.43;0.40;;;20.00;77.30;;;;;;4999206;28;20029;-88
2022/06/28 10:34:43;;;;;;;2.17;0.45;;;20.00;77.00;;;;;;5014964;28;20120;-87
2022/06/28 10:37:08;;;;;;;1.70;0.40;;;20.10;76.80;;;;;;5016076;28;20026;-90
2022/06/28 10:39:34;;;;;;;4.18;0.50;;;20.20;77.20;;;;;;4999663;28;20497;-89
2022/06/28 10:41:59;;;;;;;3.35;0.50;;;20.30;77.30;;;;;;4999689;28;20033;-90
2022/06/28 10:44:27;;;;;;;5.82;0.88;;;20.50;76.30;;;;;;5016196;28;20031;-90
2022/06/28 10:47:05;;;;;;;5.13;0.60;;;20.70;76.20;;;;;;5015796;28;20454;-89
2022/06/28 10:49:46;;;;;;;1.75;0.38;;;20.90;75.30;;;;;;5016699;28;20029;-89
2022/06/28 10:52:14;;;;;;;2.60;0.60;;;21.20;74.80;;;;;;5015272;28;20454;-88
2022/06/28 10:54:56;;;;;;;2.08;0.40;;;21.40;73.80;;;;;;5016960;28;20026;-89
2022/06/28 10:57:28;;;;;;;3.88;0.47;;;21.60;73.00;;;;;;5014960;28;20129;-89
2022/06/28 10:59:56;;;;;;;4.07;0.40;;;21.80;72.10;;;;;;5016605;28;20041;-90
2022/06/28 11:02:22;;;;;;;3.75;0.50;;;22.00;71.50;;;;;;5016290;28;20041;-88
2022/06/28 11:05:05;;;;;;;3.10;0.30;;;22.20;70.50;;;;;;5015549;28;20101;-89
2022/06/28 11:07:33;;;;;;;2.17;0.40;;;22.30;69.10;;;;;;5016641;28;20488;-88
2022/06/28 11:09:59;;;;;;;1.30;0.28;;;22.50;69.20;;;;;;5015287;28;20036;-89
2022/06/28 11:12:28;;;;;;;2.38;0.47;;;22.70;68.90;;;;;;5016838;28;20025;-89
2022/06/28 11:15:08;;;;;;;1.42;0.32;;;22.90;68.40;;;;;;5016129;28;20026;-88
2022/06/28 11:17:40;;;;;;;3.42;0.50;;;23.00;67.40;;;;;;5016155;28;20021;-89
2022/06/28 11:20:21;;;;;;;2.60;0.40;;;23.20;67.50;;;;;;5015356;28;20037;-90
2022/06/28 11:22:50;;;;;;;3.83;0.43;;;23.40;66.40;;;;;;5016198;28;20049;-91
2022/06/28 11:25:21;;;;;;;5.43;0.80;;;23.70;66.30;;;;;;4999257;28;20105;-91
2022/06/28 11:27:58;;;;;;;2.47;0.30;;;23.90;65.70;;;;;;5017847;28;20021;-90
2022/06/28 11:30:28;;;;;;;1.35;0.30;;;24.10;64.70;;;;;;5018441;28;20021;-91
2022/06/28 11:32:56;;;;;;;3.10;0.52;;;24.30;64.40;;;;;;5017886;28;20022;-90
2022/06/28 11:35:30;;;;;;;1.90;0.30;;;24.50;63.40;;;;;;5015313;28;20025;-91
2022/06/28 11:38:07;;;;;;;2.83;0.43;;;24.60;62.70;;;;;;5014745;28;20024;-90
2022/06/28 11:40:41;;;;;;;2.60;0.30;;;24.80;62.20;;;;;;5015327;28;20585;-90
2022/06/28 11:43:10;;;;;;;2.40;0.47;;;25.10;61.90;;;;;;5025261;28;20018;-90
2022/06/28 11:45:42;;;;;;;3.83;0.32;;;25.20;61.90;;;;;;5013388;28;20045;-91
2022/06/28 11:48:31;;;;;;;2.50;0.45;;;25.50;61.40;;;;;;5017515;28;20026;-90
2022/06/28 11:50:59;;;;;;;2.63;0.40;;;25.80;59.80;;;;;;5011192;28;20072;-89
2022/06/28 11:53:25;;;;;;;2.45;0.40;;;25.90;60.20;;;;;;5014269;28;20029;-89
2022/06/28 11:55:58;;;;;;;2.05;0.32;;;26.20;59.30;;;;;;5014281;28;20029;-90
2022/06/28 11:58:29;;;;;;;2.70;0.63;;;26.30;58.30;;;;;;5014705;28;20458;-90
2022/06/28 12:01:01;;;;;;;1.45;0.30;;;26.50;58.30;;;;;;4998637;28;20057;-89
2022/06/28 12:03:27;;;;;;;1.73;0.30;;;26.80;58.00;;;;;;5015200;28;20041;-90
2022/06/28 12:06:00;;;;;;;2.97;0.40;;;27.00;57.80;;;;;;5015279;28;20104;-88
2022/06/28 12:08:47;;;;;;;3.92;0.38;;;27.10;57.20;;;;;;5021502;28;20025;-88
2022/06/28 12:11:24;;;;;;;1.70;0.30;;;27.20;56.30;;;;;;5026130;28;20116;-88
2022/06/28 12:13:55;;;;;;;4.72;0.40;;;27.30;56.30;;;;;;5022225;28;20113;-87
2022/06/28 12:16:21;;;;;;;1.65;0.40;;;27.30;56.30;;;;;;5000644;28;20022;-90
2022/06/28 12:18:53;;;;;;;1.75;0.40;;;27.40;56.90;;;;;;4999644;28;20455;-91
2022/06/28 12:21:19;;;;;;;2.55;0.50;;;27.50;55.60;;;;;;5015128;28;20025;-91
2022/06/28 12:23:49;;;;;;;1.77;0.30;;;27.50;55.50;;;;;;5018693;28;20073;-90
2022/06/28 12:26:16;;;;;;;1.92;0.40;;;27.60;55.00;;;;;;5019980;28;20037;-90
2022/06/28 12:28:41;;;;;;;3.92;0.40;;;27.70;54.80;;;;;;5008159;28;20045;-87
2022/06/28 12:31:07;;;;;;;2.92;0.40;;;27.90;54.60;;;;;;5007702;28;20093;-90
2022/06/28 12:33:33;;;;;;;3.22;0.45;;;28.10;54.10;;;;;;5005594;28;20026;-91
2022/06/28 12:35:59;;;;;;;3.50;0.40;;;28.40;53.80;;;;;;5010601;28;20054;-90
2022/06/28 12:38:24;;;;;;;2.72;0.55;;;28.60;53.40;;;;;;5021833;28;20496;-91
2022/06/28 12:40:50;;;;;;;2.95;0.38;;;28.90;52.70;;;;;;5032160;28;20047;-91
2022/06/28 12:43:16;;;;;;;2.30;0.43;;;29.10;52.00;;;;;;5034965;28;20080;-90
2022/06/28 12:45:42;;;;;;;1.40;0.35;;;29.40;51.30;;;;;;5030473;28;20022;-90
2022/06/28 12:48:08;;;;;;;1.48;0.30;;;29.60;50.80;;;;;;5022387;28;20030;-91
2022/06/28 12:50:34;;;;;;;2.28;0.40;;;29.80;50.30;;;;;;5027632;28;20060;-91
2022/06/28 12:53:00;;;;;;;5.50;0.50;;;29.80;49.50;;;;;;5007671;28;20025;-90